Time;durP1;ratioP1;P1;durP2;ratioP2;P2;SDS_P1;SDS_P2;PMS_P1;PMS_P2;Temp;Humidity;BMP_temperature;BMP_pressure;BME280_temperature;BME280_humidity;BME280_pressure;Samples;Min_cycle;Max_cycle;Signal;HPM_P1;HPM_P2
2023/11/03 00:00:01;;;;;;;2.47;0.75;;;10.40;99.90;;;9.66;100.00;97401.03;5019697;28;20056;-76
2023/11/03 00:02:30;;;;;;;4.57;1.15;;;10.20;99.90;;;9.55;100.00;97384.84;5025724;28;20451;-76
2023/11/03 00:05:01;;;;;;;3.92;0.90;;;10.10;99.90;;;9.75;100.00;97407.44;5017641;28;20135;-75
2023/11/03 00:07:30;;;;;;;4.05;1.00;;;10.20;99.90;;;9.61;100.00;97412.78;5026044;28;20076;-77
2023/11/03 00:09:57;;;;;;;2.13;0.70;;;10.10;99.90;;;9.53;100.00;97416.94;5023131;28;20030;-76
2023/11/03 00:12:24;;;;;;;3.00;1.00;;;10.00;99.90;;;9.44;100.00;97415.97;5015750;28;20038;-76
2023/11/03 00:14:50;;;;;;;4.82;0.80;;;9.90;99.90;;;9.34;100.00;97419.59;5018169;28;20050;-77
2023/11/03 00:17:16;;;;;;;5.43;0.93;;;9.80;99.90;;;9.21;100.00;97426.53;5019616;28;20038;-77
2023/11/03 00:19:46;;;;;;;4.78;1.20;;;;;;;9.22;100.00;97436.31;5030070;28;20116;-77
2023/11/03 00:22:12;;;;;;;6.43;0.95;;;;;;;9.27;100.00;97438.97;5024144;28;20057;-77
2023/11/03 00:24:39;;;;;;;3.42;0.82;;;;;;;9.26;100.00;97445.50;5027808;28;20436;-76
2023/11/03 00:27:06;;;;;;;3.95;1.15;;;;;;;9.16;100.00;97442.88;5023718;28;20107;-77
2023/11/03 00:29:31;;;;;;;4.78;0.90;;;9.70;99.90;;;9.05;100.00;97447.59;5022182;28;20038;-76
2023/11/03 00:31:57;;;;;;;3.55;1.10;;;9.50;99.90;;;8.95;100.00;97439.53;5043386;28;20036;-77
2023/11/03 00:34:23;;;;;;;3.75;1.17;;;9.40;99.90;;;8.90;100.00;97438.50;5016508;28;20496;-77
2023/11/03 00:36:49;;;;;;;5.18;0.98;;;9.40;99.90;;;8.95;100.00;97436.81;5020088;28;20060;-77
2023/11/03 00:39:18;;;;;;;4.43;0.77;;;9.40;99.90;;;8.92;100.00;97443.63;5023094;28;20030;-77
2023/11/03 00:41:48;;;;;;;5.10;1.23;;;9.40;99.90;;;8.84;100.00;97436.09;5031346;28;20057;-77
2023/11/03 00:44:15;;;;;;;6.93;1.10;;;9.30;99.90;;;8.85;100.00;97435.00;5026830;28;20385;-77
2023/11/03 00:46:42;;;;;;;6.65;1.08;;;9.30;99.90;;;8.93;100.00;97445.25;5030907;28;20517;-77
2023/11/03 00:49:12;;;;;;;4.20;0.80;;;9.30;99.90;;;8.97;100.00;97446.31;5017226;28;20512;-78
2023/11/03 00:51:40;;;;;;;4.18;1.10;;;9.30;99.90;;;8.87;100.00;97446.41;5032231;28;20040;-77
2023/11/03 00:54:07;;;;;;;2.83;0.90;;;9.30;99.90;;;8.83;100.00;97453.50;5022664;28;20046;-77
2023/11/03 00:56:35;;;;;;;5.22;1.05;;;9.20;99.90;;;8.86;100.00;97451.00;5026614;28;20037;-76
2023/11/03 00:59:04;;;;;;;4.00;1.00;;;9.20;99.90;;;8.85;100.00;97443.94;5013892;28;20041;-76
2023/11/03 01:01:32;;;;;;;5.07;1.30;;;9.20;99.90;;;8.80;100.00;97440.47;5027709;28;20337;-76
2023/11/03 01:03:58;;;;;;;4.30;1.00;;;9.20;99.90;;;8.82;100.00;97447.25;5013767;28;20042;-76
2023/11/03 01:06:24;;;;;;;3.72;0.95;;;9.20;99.90;;;8.86;100.00;97445.56;5021612;28;20044;-76
2023/11/03 01:08:54;;;;;;;5.85;0.93;;;9.20;99.90;;;8.74;100.00;97429.63;5020358;28;20115;-76
2023/11/03 01:11:24;;;;;;;5.18;1.10;;;9.10;99.90;;;8.61;100.00;97439.22;5034885;28;20535;-77
2023/11/03 01:13:51;;;;;;;3.78;0.90;;;9.00;99.90;;;8.64;100.00;97432.44;5026100;28;20041;-77
2023/11/03 01:16:17;;;;;;;5.43;1.13;;;9.10;99.90;;;8.65;100.00;97438.69;5032649;28;20041;-77
2023/11/03 01:18:43;;;;;;;3.35;1.00;;;9.20;99.90;;;8.78;100.00;97438.03;5031527;28;20041;-77
2023/11/03 01:21:15;;;;;;;4.85;0.90;;;9.30;99.90;;;8.80;100.00;97426.91;5016583;28;20073;-77
2023/11/03 01:23:43;;;;;;;5.63;1.02;;;9.40;99.90;;;8.85;100.00;97422.22;4996929;28;20037;-77
2023/11/03 01:26:10;;;;;;;;;;;9.40;99.90;;;8.75;100.00;97409.53;4997628;28;20125;-77
2023/11/03 01:28:36;;;;;;;4.57;1.00;;;9.40;99.90;;;8.75;100.00;97406.00;5031902;28;19924;-77
2023/11/03 01:31:07;;;;;;;6.70;1.40;;;9.40;99.90;;;8.84;100.00;97407.00;5014036;28;20226;-77
2023/11/03 01:33:34;;;;;;;4.15;1.02;;;9.50;99.90;;;8.76;100.00;97389.41;5013134;28;20075;-77
2023/11/03 01:36:04;;;;;;;6.60;1.27;;;9.40;99.90;;;8.77;100.00;97396.47;5028180;28;20129;-77
2023/11/03 01:38:34;;;;;;;5.97;1.00;;;9.40;99.90;;;8.73;100.00;97387.22;5039552;28;20053;-77
2023/11/03 01:41:03;;;;;;;4.80;1.00;;;9.40;99.90;;;8.69;100.00;97405.22;5042281;28;20038;-77
2023/11/03 01:43:30;;;;;;;7.38;1.30;;;9.30;99.90;;;8.71;100.00;97407.66;5027048;28;20156;-77
2023/11/03 01:45:56;;;;;;;6.30;1.15;;;9.30;99.90;;;8.62;100.00;97396.56;5035459;28;20041;-77
2023/11/03 01:48:26;;;;;;;3.50;0.82;;;9.20;99.90;;;8.62;100.00;97412.88;5027198;28;20481;-77
2023/11/03 01:50:57;;;;;;;7.03;1.30;;;9.30;99.90;;;8.66;100.00;97413.13;5024543;28;20091;-77
2023/11/03 01:53:29;;;;;;;3.30;0.90;;;9.30;99.90;;;8.69;100.00;97418.00;5012926;28;20033;-77
2023/11/03 01:55:58;;;;;;;4.55;1.40;;;9.30;99.90;;;8.69;100.00;97421.50;5032237;28;20087;-78
2023/11/03 01:58:24;;;;;;;2.78;0.90;;;9.40;99.90;;;8.60;100.00;97418.59;5022029;28;20072;-77
2023/11/03 02:00:50;;;;;;;7.22;1.30;;;9.30;99.90;;;8.65;100.00;97427.81;5023856;28;20074;-77
2023/11/03 02:03:16;;;;;;;3.53;1.00;;;9.30;99.90;;;8.66;100.00;97430.25;5028881;28;20040;-77
2023/11/03 02:05:43;;;;;;;6.85;1.27;;;9.30;99.90;;;8.63;100.00;97436.25;5029606;28;20070;-77
2023/11/03 02:08:09;;;;;;;4.70;1.27;;;9.30;99.90;;;8.60;100.00;97434.88;5026759;28;20037;-78
2023/11/03 02:10:35;;;;;;;7.65;1.33;;;9.30;99.90;;;8.58;100.00;97423.50;5031868;28;20099;-77
2023/11/03 02:13:01;;;;;;;6.03;0.95;;;9.20;99.90;;;8.60;100.00;97448.47;5026300;28;20041;-77
2023/11/03 02:15:28;;;;;;;5.40;1.23;;;9.30;99.90;;;8.53;100.00;97437.13;5021631;28;20390;-77
2023/11/03 02:17:53;;;;;;;6.13;1.50;;;9.20;99.90;;;8.53;100.00;97444.47;5033683;28;20033;-77
2023/11/03 02:20:21;;;;;;;4.25;1.00;;;9.20;99.90;;;8.34;100.00;97445.09;5036020;28;20453;-77
2023/11/03 02:22:53;;;;;;;4.50;0.87;;;9.10;99.90;;;8.42;100.00;97463.50;5014053;28;20038;-76
2023/11/03 02:25:18;;;;;;;5.35;1.00;;;9.10;99.90;;;8.39;100.00;97458.63;5031410;28;20357;-77
2023/11/03 02:27:44;;;;;;;7.75;1.30;;;9.10;99.90;;;8.41;100.00;97442.88;5031571;28;20515;-77
2023/11/03 02:30:11;;;;;;;4.18;0.85;;;9.10;99.90;;;8.48;100.00;97456.94;5026673;28;20442;-78
2023/11/03 02:32:36;;;;;;;5.20;0.90;;;9.20;99.90;;;8.42;100.00;97446.41;5016209;28;20108;-76
2023/11/03 02:35:03;;;;;;;4.65;1.38;;;9.10;99.90;;;8.47;100.00;97449.88;5015930;28;20489;-77
2023/11/03 02:37:28;;;;;;;6.93;1.20;;;9.10;99.90;;;8.36;100.00;97434.75;5022552;28;20038;-77
2023/11/03 02:39:55;;;;;;;5.60;1.00;;;9.10;99.90;;;8.31;100.00;97426.66;5012366;28;20195;-77
2023/11/03 02:42:21;;;;;;;5.68;0.93;;;9.00;99.90;;;8.36;100.00;97426.59;5025054;28;20072;-77
2023/11/03 02:44:48;;;;;;;6.03;1.10;;;9.00;99.90;;;8.33;100.00;97419.03;5013522;28;20064;-77
2023/11/03 02:47:14;;;;;;;6.75;1.20;;;9.00;99.90;;;8.32;100.00;97422.84;5031728;28;20037;-77
2023/11/03 02:49:40;;;;;;;14.18;1.27;;;9.00;99.90;;;8.27;100.00;97415.53;5030171;28;20431;-78
2023/11/03 02:52:06;;;;;;;9.27;2.10;;;9.00;99.90;;;8.32;100.00;97426.34;5001761;28;20057;-78
2023/11/03 02:54:32;;;;;;;9.88;1.98;;;9.00;99.90;;;8.27;100.00;97441.88;5011544;28;20509;-78
2023/11/03 02:56:58;;;;;;;8.60;1.67;;;9.00;99.90;;;8.20;100.00;97439.47;5031639;28;20034;-77
2023/11/03 02:59:24;;;;;;;5.20;1.08;;;8.90;99.90;;;8.21;100.00;97433.75;5026326;28;20038;-78
2023/11/03 03:01:49;;;;;;;7.50;1.30;;;8.90;99.90;;;8.21;100.00;97435.66;5018897;28;20029;-76
2023/11/03 03:04:15;;;;;;;6.82;1.33;;;8.90;99.90;;;8.13;100.00;97428.09;5025904;28;20512;-78
2023/11/03 03:06:45;;;;;;;6.25;1.27;;;8.80;99.90;;;8.13;100.00;97447.13;5012109;28;20064;-78
2023/11/03 03:09:12;;;;;;;5.22;1.30;;;8.70;99.90;;;8.07;100.00;97451.75;5036162;28;20108;-77
2023/11/03 03:11:41;;;;;;;4.25;1.08;;;8.70;99.90;;;8.06;100.00;97452.84;5032270;28;20056;-76
2023/11/03 03:14:08;;;;;;;6.28;1.50;;;8.60;99.90;;;7.90;100.00;97444.75;5032218;28;20036;-77
2023/11/03 03:16:35;;;;;;;7.78;1.23;;;8.60;99.90;;;8.01;100.00;97444.72;5033925;28;20084;-78
2023/11/03 03:19:01;;;;;;;10.30;1.40;;;8.70;99.90;;;8.08;100.00;97442.50;5011364;28;20053;-77
2023/11/03 03:21:27;;;;;;;8.55;1.50;;;8.70;99.90;;;8.20;100.00;97431.31;5036924;28;20056;-77
2023/11/03 03:23:53;;;;;;;6.38;1.60;;;8.80;99.90;;;8.20;100.00;97432.13;5034302;28;20042;-80
2023/11/03 03:26:19;;;;;;;9.13;1.50;;;8.80;99.90;;;8.21;100.00;97425.59;5031738;28;20045;-77
2023/11/03 03:28:44;;;;;;;5.85;1.00;;;8.80;99.90;;;8.15;100.00;97410.44;5023038;28;20389;-78
2023/11/03 03:31:10;;;;;;;5.50;1.00;;;8.70;99.90;;;8.15;100.00;97407.72;5025292;28;20034;-78
2023/11/03 03:33:36;;;;;;;5.90;1.02;;;8.70;99.90;;;8.19;100.00;97419.63;5011610;28;20044;-78
2023/11/03 03:36:02;;;;;;;4.03;1.00;;;8.70;99.90;;;8.29;100.00;97407.91;5020810;28;20034;-78
2023/11/03 03:38:28;;;;;;;6.28;1.40;;;8.80;99.90;;;8.23;100.00;97416.38;5026411;28;20064;-77
2023/11/03 03:40:53;;;;;;;10.63;1.50;;;8.80;99.90;;;8.20;100.00;97406.88;5037924;28;20078;-77
2023/11/03 03:43:19;;;;;;;5.93;1.15;;;8.70;99.90;;;8.12;100.00;97404.75;5028170;28;20044;-78
2023/11/03 03:45:45;;;;;;;7.45;1.73;;;8.70;99.90;;;8.18;100.00;97395.50;5045850;28;20037;-78
2023/11/03 03:48:11;;;;;;;7.95;1.85;;;8.70;99.90;;;8.16;100.00;97378.66;5025469;28;20094;-78
2023/11/03 03:50:37;;;;;;;5.60;1.42;;;8.70;99.90;;;8.27;100.00;97382.13;5030707;28;20029;-78
2023/11/03 03:53:03;;;;;;;8.63;1.30;;;8.80;99.90;;;8.34;100.00;97379.91;5013802;28;20041;-78
2023/11/03 03:55:29;;;;;;;5.95;1.40;;;8.90;99.90;;;8.39;100.00;97381.78;5027549;28;20090;-78
2023/11/03 03:57:54;;;;;;;8.85;1.30;;;8.90;99.90;;;8.25;100.00;97374.25;5011652;28;20040;-78
2023/11/03 04:00:21;;;;;;;7.45;1.20;;;8.80;99.90;;;8.28;100.00;97387.28;4994822;28;20041;-79
2023/11/03 04:02:47;;;;;;;7.45;1.42;;;8.80;99.90;;;8.28;100.00;97392.69;5038038;28;20037;-78
2023/11/03 04:05:13;;;;;;;10.30;1.38;;;8.80;99.90;;;8.20;100.00;97388.66;5030349;28;20555;-78
2023/11/03 04:07:39;;;;;;;7.32;1.13;;;8.60;99.90;;;7.95;100.00;97372.53;5023749;28;20045;-79
2023/11/03 04:10:06;;;;;;;3.05;0.93;;;8.50;99.90;;;8.06;100.00;97393.09;5011816;28;20056;-78
2023/11/03 04:12:31;;;;;;;5.75;1.20;;;8.50;99.90;;;8.08;100.00;97404.50;5022330;28;20049;-80
2023/11/03 04:14:57;;;;;;;4.55;1.30;;;8.50;99.90;;;8.00;100.00;97397.75;5024627;28;20033;-79
2023/11/03 04:17:23;;;;;;;8.20;1.10;;;8.50;99.90;;;7.95;100.00;97402.38;5017403;28;20050;-79
2023/11/03 04:19:48;;;;;;;5.95;1.38;;;8.50;99.90;;;7.95;100.00;97407.81;5014585;28;20068;-78
2023/11/03 04:22:14;;;;;;;7.63;1.40;;;8.50;99.90;;;7.94;100.00;97420.59;5030561;28;20040;-78
2023/11/03 04:24:40;;;;;;;5.20;1.27;;;8.50;99.90;;;7.94;100.00;97433.34;5020127;28;20042;-78
2023/11/03 04:27:06;;;;;;;5.90;1.40;;;8.50;99.90;;;7.88;100.00;97427.13;5015044;28;20049;-79
2023/11/03 04:29:31;;;;;;;9.13;1.67;;;8.40;99.90;;;7.80;100.00;97433.13;5022963;28;20044;-78
2023/11/03 04:31:58;;;;;;;5.93;2.13;;;8.30;99.90;;;7.76;100.00;97430.16;5033690;28;20042;-79
2023/11/03 04:34:23;;;;;;;7.70;1.60;;;8.30;99.90;;;7.76;100.00;97441.81;5024330;28;20026;-77
2023/11/03 04:36:50;;;;;;;6.70;1.23;;;8.20;99.90;;;7.71;100.00;97436.41;4998240;28;20441;-77
2023/11/03 04:39:16;;;;;;;7.93;1.42;;;8.20;99.90;;;7.57;100.00;97424.53;5017233;28;20481;-77
2023/11/03 04:41:42;;;;;;;7.72;1.67;;;8.10;99.90;;;7.60;100.00;97435.63;5024293;28;20041;-79
2023/11/03 04:44:08;;;;;;;6.55;1.65;;;8.10;99.90;;;7.65;100.00;97447.56;5030188;28;20041;-77
2023/11/03 04:46:33;;;;;;;5.07;1.02;;;8.00;99.90;;;7.62;100.00;97444.31;5023466;28;20144;-78
2023/11/03 04:48:59;;;;;;;5.13;1.58;;;8.00;99.90;;;7.61;100.00;97445.41;5024004;28;20034;-78
2023/11/03 04:51:25;;;;;;;8.10;1.50;;;8.10;99.90;;;7.59;100.00;97450.28;5029886;28;20060;-78
2023/11/03 04:53:51;;;;;;;4.78;1.13;;;8.10;99.90;;;7.60;100.00;97459.25;5027057;28;20053;-78
2023/11/03 04:56:16;;;;;;;3.92;1.10;;;8.00;99.90;;;7.55;100.00;97445.69;5020039;28;21005;-79
2023/11/03 04:58:42;;;;;;;8.18;1.48;;;8.00;99.90;;;7.52;100.00;97457.09;5022184;28;20069;-78
2023/11/03 05:01:13;;;;;;;5.32;1.70;;;7.90;99.90;;;7.56;100.00;97461.69;5022742;28;20029;-78
2023/11/03 05:03:40;;;;;;;8.02;1.40;;;7.90;99.90;;;7.58;100.00;97462.22;5032356;28;20050;-79
2023/11/03 05:06:06;;;;;;;5.13;1.08;;;8.00;99.90;;;7.65;100.00;97461.13;5027172;28;20033;-78
2023/11/03 05:08:32;;;;;;;5.75;1.20;;;8.00;99.90;;;7.56;100.00;97458.16;5042720;28;20645;-78
2023/11/03 05:10:58;;;;;;;7.97;1.50;;;8.00;99.90;;;7.72;100.00;97461.66;5028051;28;20083;-78
2023/11/03 05:13:23;;;;;;;8.55;1.63;;;8.10;99.90;;;7.68;100.00;97455.13;5027022;28;20037;-80
2023/11/03 05:15:49;;;;;;;4.55;1.30;;;8.20;99.90;;;7.71;100.00;97460.03;5032036;28;20053;-80
2023/11/03 05:18:15;;;;;;;5.63;1.30;;;8.20;99.90;;;7.70;100.00;97458.41;5050090;28;20051;-79
2023/11/03 05:20:41;;;;;;;4.93;1.35;;;8.10;99.90;;;7.53;100.00;97445.97;5032667;28;20045;-79
2023/11/03 05:23:07;;;;;;;6.00;0.90;;;8.10;99.90;;;7.54;100.00;97450.31;5033928;28;20052;-77
2023/11/03 05:25:32;;;;;;;10.10;1.42;;;8.00;99.90;;;7.51;100.00;97461.72;5030012;28;20485;-78
2023/11/03 05:27:58;;;;;;;10.38;1.20;;;7.90;99.90;;;7.34;100.00;97451.97;5047232;28;20502;-77
2023/11/03 05:30:25;;;;;;;6.93;1.40;;;7.80;99.90;;;7.38;100.00;97446.00;5034323;28;20541;-77
2023/11/03 05:32:51;;;;;;;8.10;1.45;;;7.70;99.90;;;7.42;100.00;97449.78;5032804;28;20061;-78
2023/11/03 05:35:16;;;;;;;7.18;1.27;;;7.70;99.90;;;7.45;100.00;97451.97;5031044;28;20338;-79
2023/11/03 05:37:43;;;;;;;6.32;1.25;;;7.80;99.90;;;7.57;100.00;97452.47;5028849;28;20690;-76
2023/11/03 05:40:11;;;;;;;4.90;1.27;;;7.90;99.90;;;7.69;100.00;97460.31;5031689;28;20040;-78
2023/11/03 05:42:40;;;;;;;8.65;1.25;;;8.00;99.90;;;7.76;100.00;97457.31;5033138;28;20421;-78
2023/11/03 05:45:07;;;;;;;5.45;1.10;;;8.10;99.90;;;7.75;100.00;97458.41;5033374;28;20041;-77
2023/11/03 05:47:33;;;;;;;9.82;1.52;;;8.00;99.90;;;7.63;100.00;97458.69;5027366;28;20379;-78
2023/11/03 05:50:04;;;;;;;6.55;1.58;;;8.00;99.90;;;7.39;100.00;97456.56;5038873;28;20111;-76
2023/11/03 05:52:30;;;;;;;5.38;1.20;;;7.90;99.90;;;7.50;100.00;97460.09;5028988;28;20389;-77
2023/11/03 05:54:56;;;;;;;6.03;1.02;;;7.90;99.90;;;7.53;100.00;97459.53;5043567;28;20103;-77
2023/11/03 05:57:22;;;;;;;7.40;1.10;;;7.90;99.90;;;7.66;100.00;97473.59;5022493;28;20034;-77
2023/11/03 05:59:48;;;;;;;3.67;1.10;;;8.00;99.90;;;7.88;100.00;97481.41;5025326;28;20033;-77
2023/11/03 06:02:15;;;;;;;5.22;1.02;;;8.30;99.90;;;7.91;100.00;97467.28;5018931;28;20073;-77
2023/11/03 06:04:41;;;;;;;8.38;1.30;;;8.40;99.90;;;7.94;100.00;97474.06;5028805;28;20030;-78
2023/11/03 06:07:07;;;;;;;3.72;1.00;;;8.40;99.90;;;7.93;100.00;97475.97;5025822;28;20064;-78
2023/11/03 06:09:34;;;;;;;8.90;1.20;;;8.40;99.90;;;7.92;100.00;97475.13;5027812;28;20079;-77
2023/11/03 06:12:03;;;;;;;4.73;0.90;;;8.40;99.90;;;7.85;100.00;97474.63;5025342;28;20025;-77
2023/11/03 06:14:28;;;;;;;6.45;1.20;;;8.40;99.90;;;7.77;100.00;97476.00;5020714;28;20065;-77
2023/11/03 06:16:54;;;;;;;5.40;1.40;;;8.30;99.90;;;7.82;100.00;97485.22;5021149;28;20073;-78
2023/11/03 06:19:21;;;;;;;5.68;1.15;;;8.30;99.90;;;7.76;100.00;97477.09;5013514;28;20041;-78
2023/11/03 06:21:46;;;;;;;6.13;1.17;;;8.30;99.90;;;7.86;100.00;97503.41;5024817;28;20123;-77
2023/11/03 06:24:12;;;;;;;6.20;1.30;;;8.30;99.90;;;7.82;100.00;97477.91;5028897;28;20075;-78
2023/11/03 06:26:38;;;;;;;6.30;1.23;;;8.40;99.90;;;8.07;100.00;97500.63;5023157;28;20041;-78
2023/11/03 06:29:04;;;;;;;3.00;1.02;;;8.50;99.90;;;8.14;100.00;97506.56;5030840;28;20397;-76
2023/11/03 06:31:33;;;;;;;5.03;1.30;;;8.60;99.90;;;8.32;100.00;97509.75;5040039;28;20052;-76
2023/11/03 06:33:59;;;;;;;6.70;1.10;;;8.80;99.90;;;8.43;100.00;97505.88;5027437;28;20041;-77
2023/11/03 06:36:25;;;;;;;8.25;1.25;;;8.90;99.90;;;8.45;100.00;97503.69;5021966;28;20397;-76
2023/11/03 06:38:51;;;;;;;3.40;1.10;;;8.90;99.90;;;8.51;100.00;97509.94;5019903;28;20033;-78
2023/11/03 06:41:16;;;;;;;4.78;1.33;;;9.00;99.90;;;8.68;100.00;97520.44;5016549;28;20037;-77
2023/11/03 06:43:43;;;;;;;5.43;1.13;;;9.10;99.90;;;8.76;100.00;97528.03;5022645;28;20449;-77
2023/11/03 06:46:09;;;;;;;5.20;1.13;;;9.10;99.90;;;8.87;100.00;97517.09;5027544;28;20037;-77
2023/11/03 06:48:36;;;;;;;11.52;1.13;;;9.20;99.90;;;8.96;100.00;97522.72;5013405;28;20042;-77
2023/11/03 06:51:09;;;;;;;7.45;1.25;;;9.30;99.90;;;8.99;100.00;97520.25;5030536;28;20033;-77
2023/11/03 06:53:35;;;;;;;3.33;1.00;;;9.30;99.90;;;9.00;100.00;97511.00;5024252;28;20073;-77
2023/11/03 06:56:02;;;;;;;5.43;1.10;;;9.30;99.90;;;9.02;100.00;97508.00;5025376;28;20064;-77
2023/11/03 06:58:27;;;;;;;5.93;1.20;;;9.30;99.90;;;9.02;100.00;97511.53;5028931;28;20048;-77
2023/11/03 07:00:53;;;;;;;7.78;1.10;;;9.40;99.90;;;9.03;100.00;97504.19;5023976;28;20124;-77
2023/11/03 07:03:19;;;;;;;5.97;1.38;;;9.40;99.90;;;9.09;100.00;97507.69;5014071;28;20509;-76
2023/11/03 07:05:46;;;;;;;6.40;1.20;;;9.50;99.90;;;9.15;100.00;97517.41;5026273;28;20584;-77
2023/11/03 07:08:12;;;;;;;3.85;1.00;;;9.50;99.90;;;9.12;100.00;97510.63;5023754;28;20497;-78
2023/11/03 07:10:38;;;;;;;4.63;1.15;;;9.60;99.90;;;9.19;100.00;97511.13;5030273;28;20386;-77
2023/11/03 07:13:04;;;;;;;4.65;1.08;;;9.60;99.90;;;9.23;100.00;97514.09;5029137;28;20034;-77
2023/11/03 07:15:35;;;;;;;6.88;1.20;;;9.60;99.90;;;9.35;100.00;97511.81;5023515;28;20096;-77
2023/11/03 07:18:00;;;;;;;8.57;1.10;;;9.70;99.90;;;9.25;100.00;97525.50;5028525;28;20429;-77
2023/11/03 07:20:30;;;;;;;6.82;1.33;;;9.80;99.90;;;9.38;100.00;97531.38;5011881;28;20041;-77
2023/11/03 07:22:56;;;;;;;5.00;1.25;;;9.80;99.90;;;9.33;100.00;97521.34;5023279;28;20037;-77
2023/11/03 07:25:24;;;;;;;3.53;0.95;;;9.80;99.90;;;9.45;100.00;97523.69;5026349;28;20041;-77
2023/11/03 07:27:51;;;;;;;5.25;1.02;;;9.90;99.90;;;9.41;100.00;97536.25;5021377;28;20069;-76
2023/11/03 07:30:18;;;;;;;5.15;1.20;;;9.90;99.90;;;9.46;100.00;97545.19;5027494;28;20033;-76
2023/11/03 07:32:44;;;;;;;4.65;1.00;;;9.90;99.90;;;9.33;100.00;97541.22;5025467;28;20033;-76
2023/11/03 07:35:11;;;;;;;5.72;1.23;;;9.90;99.90;;;9.43;100.00;97551.22;5017657;28;20037;-77
2023/11/03 07:37:37;;;;;;;4.60;1.20;;;9.90;99.90;;;9.44;100.00;97557.44;5025319;28;20033;-77
2023/11/03 07:40:05;;;;;;;4.80;1.00;;;9.80;99.90;;;9.39;100.00;97549.34;5024428;28;20436;-77
2023/11/03 07:42:31;;;;;;;4.22;0.93;;;9.80;99.90;;;9.37;100.00;97562.41;5010524;28;20524;-77
2023/11/03 07:44:57;;;;;;;4.47;1.00;;;9.90;99.90;;;9.40;100.00;97584.41;5028079;28;20034;-76
2023/11/03 07:47:23;;;;;;;4.32;1.10;;;9.90;99.90;;;9.27;100.00;97572.25;5045184;28;20045;-76
2023/11/03 07:49:49;;;;;;;2.25;0.93;;;9.90;99.90;;;9.19;100.00;97576.41;5015087;28;20049;-76
2023/11/03 07:52:16;;;;;;;4.32;1.17;;;9.80;99.90;;;9.14;100.00;97581.88;5027006;28;20044;-76
2023/11/03 07:54:43;;;;;;;3.30;1.05;;;9.70;99.90;;;9.18;100.00;97593.00;5030464;28;20381;-76
2023/11/03 07:57:09;;;;;;;3.50;1.10;;;9.80;99.90;;;9.20;100.00;97586.19;5025737;28;20042;-76
2023/11/03 07:59:35;;;;;;;6.85;2.17;;;9.70;99.90;;;9.25;100.00;97570.94;5026832;28;20041;-76
2023/11/03 08:02:04;;;;;;;6.05;1.73;;;9.80;99.90;;;9.39;100.00;97590.16;5023809;28;20032;-76
2023/11/03 08:04:30;;;;;;;3.10;1.00;;;9.90;99.90;;;9.42;100.00;97589.56;5025803;28;20037;-76
2023/11/03 08:06:57;;;;;;;3.83;0.90;;;9.90;99.90;;;9.45;100.00;97589.00;5028027;28;20042;-76
2023/11/03 08:09:23;;;;;;;5.15;0.93;;;10.00;99.90;;;9.55;100.00;97582.66;5025790;28;20029;-75
2023/11/03 08:11:48;;;;;;;5.57;0.98;;;10.10;99.90;;;9.53;100.00;97569.34;5020958;28;20088;-76
2023/11/03 08:14:14;;;;;;;6.28;1.05;;;10.10;99.90;;;9.71;100.00;97567.84;5039095;28;20059;-75
2023/11/03 08:16:44;;;;;;;3.35;0.80;;;10.20;99.90;;;9.90;100.00;97573.38;5028498;28;20091;-76
2023/11/03 08:19:14;;;;;;;4.25;0.88;;;10.30;99.90;;;9.97;100.00;97575.75;5029556;28;20037;-77
2023/11/03 08:21:43;;;;;;;3.78;0.80;;;10.40;99.90;;;10.06;100.00;97573.19;5029472;28;20424;-76
2023/11/03 08:24:13;;;;;;;6.90;1.13;;;10.40;99.90;;;10.02;100.00;97588.50;5024578;28;20033;-77
2023/11/03 08:26:40;;;;;;;3.92;0.93;;;10.50;99.90;;;10.12;100.00;97587.56;5041661;28;20513;-77
2023/11/03 08:29:08;;;;;;;3.53;1.03;;;10.50;99.90;;;10.17;100.00;97595.69;5028594;28;20084;-76
2023/11/03 08:31:35;;;;;;;4.85;1.15;;;10.50;99.90;;;10.22;100.00;97584.75;5026022;28;20029;-77
2023/11/03 08:34:06;;;;;;;4.72;0.82;;;10.60;99.90;;;10.28;100.00;97593.66;5027352;28;20048;-77
2023/11/03 08:36:32;;;;;;;4.28;1.08;;;10.70;99.90;;;10.48;100.00;97596.19;5028256;28;20439;-76
2023/11/03 08:38:58;;;;;;;6.60;1.20;;;10.80;99.90;;;10.53;100.00;97599.97;5025096;28;20033;-77
2023/11/03 08:41:25;;;;;;;9.95;1.45;;;10.80;99.90;;;10.55;100.00;97601.31;5025791;28;20132;-77
2023/11/03 08:43:51;;;;;;;4.93;1.20;;;10.90;99.90;;;10.63;100.00;97608.81;5020295;28;20465;-77
2023/11/03 08:46:17;;;;;;;3.97;0.95;;;11.00;99.90;;;10.66;100.00;97607.44;5011294;28;20037;-78
2023/11/03 08:48:45;;;;;;;4.35;0.80;;;11.00;99.90;;;10.73;100.00;97616.06;5022311;28;20135;-78
2023/11/03 08:51:11;;;;;;;7.43;1.63;;;11.10;99.90;;;10.79;100.00;97616.81;5025140;28;20458;-78
2023/11/03 08:53:37;;;;;;;5.20;1.00;;;11.20;99.90;;;11.02;100.00;97628.78;5026597;28;20060;-77
2023/11/03 08:56:06;;;;;;;2.30;0.77;;;11.30;99.90;;;10.98;100.00;97627.75;5027231;28;20393;-77
2023/11/03 08:58:33;;;;;;;4.30;1.00;;;11.30;99.90;;;10.92;100.00;97631.66;5037790;28;20504;-78
2023/11/03 09:01:00;;;;;;;5.97;1.23;;;11.30;99.90;;;10.81;100.00;97632.88;5026264;28;20040;-77
2023/11/03 09:03:27;;;;;;;3.80;0.82;;;11.20;99.90;;;10.82;100.00;97624.41;5024350;28;20120;-78
2023/11/03 09:05:54;;;;;;;3.20;1.40;;;11.20;99.90;;;11.04;100.00;97612.94;5031830;28;20507;-77
2023/11/03 09:08:20;;;;;;;5.50;1.42;;;11.30;99.90;;;11.12;100.00;97629.75;5028988;28;20049;-77
2023/11/03 09:10:46;;;;;;;8.63;1.23;;;11.40;99.90;;;11.25;100.00;97622.72;5024979;28;20037;-77
2023/11/03 09:13:12;;;;;;;8.40;1.08;;;11.60;99.90;;;11.13;100.00;97636.81;5033068;28;20048;-77
2023/11/03 09:15:38;;;;;;;4.95;1.10;;;11.70;99.90;;;11.29;100.00;97638.22;5026961;28;20120;-78
2023/11/03 09:18:05;;;;;;;4.78;1.17;;;11.80;99.90;;;11.41;100.00;97637.00;5016267;28;20038;-78
2023/11/03 09:20:31;;;;;;;6.95;1.13;;;11.80;99.90;;;11.51;100.00;97640.34;5042394;28;20068;-76
2023/11/03 09:22:57;;;;;;;8.15;1.27;;;11.90;99.90;;;11.65;100.00;97654.06;5033461;28;20044;-76
2023/11/03 09:25:24;;;;;;;8.85;1.65;;;12.10;99.90;;;11.77;100.00;97661.78;5029678;28;20030;-75
2023/11/03 09:27:50;;;;;;;5.32;0.90;;;12.20;99.90;;;12.06;100.00;97668.19;5029229;28;20143;-77
2023/11/03 09:30:16;;;;;;;6.10;1.17;;;;;;;12.31;100.00;97679.81;5028004;28;20143;-76
2023/11/03 09:32:43;;;;;;;5.13;1.55;;;12.60;99.90;;;12.73;100.00;97671.63;5019856;28;20033;-76
2023/11/03 09:35:09;;;;;;;7.78;1.00;;;13.80;99.90;;;12.73;100.00;97677.09;5037506;28;20041;-76
2023/11/03 09:37:35;;;;;;;3.92;0.88;;;;;;;13.17;100.00;97683.06;5016079;28;20022;-76
2023/11/03 09:40:02;;;;;;;4.70;1.30;;;;;;;14.10;95.72;97672.75;5019942;28;20515;-76
2023/11/03 09:42:29;;;;;;;7.78;1.45;;;14.10;99.90;;;14.20;91.04;97661.50;5023155;28;20030;-76
2023/11/03 09:44:57;;;;;;;5.43;1.25;;;15.90;97.90;;;13.56;94.21;97689.91;5032688;28;20072;-77
2023/11/03 09:47:25;;;;;;;4.22;1.10;;;;;;;13.15;95.87;97690.75;5031592;28;20448;-78
2023/11/03 09:49:57;;;;;;;8.93;1.45;;;;;;;12.85;100.00;97707.50;5026582;28;20045;-76
2023/11/03 09:52:25;;;;;;;6.20;1.20;;;;;;;13.07;100.00;97698.59;5022799;28;20033;-76
2023/11/03 09:54:54;;;;;;;5.75;1.05;;;;;;;13.24;98.69;97703.44;5029274;28;20046;-77
2023/11/03 09:57:20;;;;;;;5.95;1.15;;;14.90;99.20;;;14.06;97.52;97704.66;5026513;28;20068;-78
2023/11/03 09:59:48;;;;;;;8.33;1.50;;;;;;;15.03;85.42;97683.97;5025064;28;20060;-77
2023/11/03 10:02:19;;;;;;;8.98;1.45;;;13.90;99.90;;;15.49;83.65;97687.28;5026534;28;20077;-78
2023/11/03 10:04:45;;;;;;;6.25;1.30;;;;;;;16.84;70.69;97663.59;5032779;28;20084;-78
2023/11/03 10:07:13;;;;;;;4.63;1.00;;;;;;;19.44;59.26;97645.53;5032190;28;20111;-78
2023/11/03 10:09:42;;;;;;;4.78;1.25;;;;;;;19.94;53.75;97622.09;5031956;28;20053;-78
2023/11/03 10:12:15;;;;;;;4.68;1.23;;;;;;;18.91;54.11;97615.88;5031830;28;20669;-78
2023/11/03 10:14:42;;;;;;;8.48;1.48;;;;;;;16.48;63.17;97659.41;5028393;28;20037;-78
2023/11/03 10:17:08;;;;;;;7.60;1.30;;;;;;;16.38;70.29;97679.81;5023830;28;20522;-77
2023/11/03 10:19:34;;;;;;;6.82;1.80;;;;;;;14.98;73.36;97680.56;5022708;28;20108;-78
2023/11/03 10:22:07;;;;;;;7.75;1.30;;;;;;;14.78;78.95;97694.56;5026297;28;20045;-78
2023/11/03 10:24:37;;;;;;;7.53;1.17;;;;;;;15.16;77.29;97697.91;5026849;28;20105;-77
2023/11/03 10:27:03;;;;;;;5.72;1.02;;;;;;;16.18;72.46;97679.41;5030303;28;20045;-77